KGWB

De Kalb County Airport

Auburn, Indiana, USA
METAR KGWB 240135Z AUTO 00000KT 10SM CLR 18/13 A3018 RMK AO2
Observed Flight Rules
May-24 @ 01:35 UTC (18 minutes ago) Visual Flight Rules
Visibility Clouds
10 miles
  • Clear skies
Temperatures Readings
Current 18°C / 64°F
Dewpoint 13°C / 55°F
Humidity 73%
Altimeter 30.18" Hg
Pressure 1022 hPa
Elevation 269
METAR KGWB 240135Z AUTO 00000KT 10SM CLR 18/13 A3018 RMK AO2
Observed Flight Rules
May-24 @ 01:35 UTC
(18 minutes ago)
VFR
Clouds
  • Clear skies
Temperature Dewpoint
18°C / 64°F 13°C / 55°F
Humidity Altimeter Pressure
73% 30.18" Hg 1022 hPa